Preview an experimental upcoming version of this site at Beta.AviationWeather.gov

METAR Data
IDs: Format: Raw Decoded Include TAF

Data at: 1610 UTC 26 Sep 2023

KSAT 261551Z VRB03KT 10SM SCT040 SCT070 30/20 A3008 RMK AO2 SLP167 T03000200 $